sensor_id;sensor_type;location;lat;lon;timestamp;P1;durP1;ratioP1;P2;durP2;ratioP2
52858;SDS011;38721;53.098;6.596;2023-05-10T00:00:23;13.23;;;10.98;;
52858;SDS011;38721;53.098;6.596;2023-05-10T00:02:49;11.13;;;10.00;;
52858;SDS011;38721;53.098;6.596;2023-05-10T00:05:15;12.48;;;10.32;;
52858;SDS011;38721;53.098;6.596;2023-05-10T00:07:41;12.40;;;10.00;;
52858;SDS011;38721;53.098;6.596;2023-05-10T00:10:09;11.60;;;10.32;;
52858;SDS011;38721;53.098;6.596;2023-05-10T00:12:36;11.80;;;10.38;;
52858;SDS011;38721;53.098;6.596;2023-05-10T00:15:01;11.73;;;9.93;;
52858;SDS011;38721;53.098;6.596;2023-05-10T00:17:28;11.20;;;9.73;;
52858;SDS011;38721;53.098;6.596;2023-05-10T00:19:54;12.32;;;9.77;;
52858;SDS011;38721;53.098;6.596;2023-05-10T00:22:19;15.70;;;10.68;;
52858;SDS011;38721;53.098;6.596;2023-05-10T00:24:45;12.75;;;10.88;;
52858;SDS011;38721;53.098;6.596;2023-05-10T00:27:11;11.60;;;10.38;;
52858;SDS011;38721;53.098;6.596;2023-05-10T00:29:37;12.68;;;11.05;;
52858;SDS011;38721;53.098;6.596;2023-05-10T00:32:02;13.55;;;11.25;;
52858;SDS011;38721;53.098;6.596;2023-05-10T00:34:28;12.75;;;10.80;;
52858;SDS011;38721;53.098;6.596;2023-05-10T00:36:54;14.25;;;10.77;;
52858;SDS011;38721;53.098;6.596;2023-05-10T00:39:19;12.77;;;10.63;;
52858;SDS011;38721;53.098;6.596;2023-05-10T00:41:45;13.50;;;11.10;;
52858;SDS011;38721;53.098;6.596;2023-05-10T00:44:11;18.98;;;11.68;;
52858;SDS011;38721;53.098;6.596;2023-05-10T00:46:37;12.25;;;10.23;;
52858;SDS011;38721;53.098;6.596;2023-05-10T00:49:03;13.48;;;10.70;;
52858;SDS011;38721;53.098;6.596;2023-05-10T00:51:29;13.93;;;10.68;;
52858;SDS011;38721;53.098;6.596;2023-05-10T00:53:56;12.45;;;10.63;;
52858;SDS011;38721;53.098;6.596;2023-05-10T00:56:22;13.40;;;10.82;;
52858;SDS011;38721;53.098;6.596;2023-05-10T00:58:49;16.90;;;11.32;;
52858;SDS011;38721;53.098;6.596;2023-05-10T01:01:15;13.70;;;11.40;;
52858;SDS011;38721;53.098;6.596;2023-05-10T01:03:41;13.07;;;10.25;;
52858;SDS011;38721;53.098;6.596;2023-05-10T01:06:07;12.90;;;10.32;;
52858;SDS011;38721;53.098;6.596;2023-05-10T01:08:33;11.95;;;9.70;;
52858;SDS011;38721;53.098;6.596;2023-05-10T01:10:58;13.00;;;9.52;;
52858;SDS011;38721;53.098;6.596;2023-05-10T01:15:58;10.88;;;8.93;;
52858;SDS011;38721;53.098;6.596;2023-05-10T01:18:27;10.85;;;9.30;;
52858;SDS011;38721;53.098;6.596;2023-05-10T01:20:58;13.25;;;10.52;;
52858;SDS011;38721;53.098;6.596;2023-05-10T01:26:39;12.27;;;9.70;;
52858;SDS011;38721;53.098;6.596;2023-05-10T01:32:28;13.88;;;9.80;;
52858;SDS011;38721;53.098;6.596;2023-05-10T01:35:03;11.70;;;9.43;;
52858;SDS011;38721;53.098;6.596;2023-05-10T01:42:43;11.98;;;9.82;;
52858;SDS011;38721;53.098;6.596;2023-05-10T01:45:20;11.32;;;9.65;;
52858;SDS011;38721;53.098;6.596;2023-05-10T01:48:02;12.05;;;9.63;;
52858;SDS011;38721;53.098;6.596;2023-05-10T01:50:31;13.43;;;10.23;;
52858;SDS011;38721;53.098;6.596;2023-05-10T01:53:00;11.07;;;9.18;;
52858;SDS011;38721;53.098;6.596;2023-05-10T01:55:28;11.65;;;10.00;;
52858;SDS011;38721;53.098;6.596;2023-05-10T01:58:07;12.55;;;10.48;;
52858;SDS011;38721;53.098;6.596;2023-05-10T02:00:44;11.10;;;9.90;;
52858;SDS011;38721;53.098;6.596;2023-05-10T02:03:12;12.55;;;10.32;;
52858;SDS011;38721;53.098;6.596;2023-05-10T02:05:40;11.57;;;10.18;;
52858;SDS011;38721;53.098;6.596;2023-05-10T02:08:12;10.50;;;9.35;;
52858;SDS011;38721;53.098;6.596;2023-05-10T02:10:41;12.55;;;10.25;;
52858;SDS011;38721;53.098;6.596;2023-05-10T02:13:08;12.48;;;10.50;;
52858;SDS011;38721;53.098;6.596;2023-05-10T02:15:35;12.93;;;10.63;;
52858;SDS011;38721;53.098;6.596;2023-05-10T02:18:02;13.07;;;10.68;;
52858;SDS011;38721;53.098;6.596;2023-05-10T02:20:30;13.60;;;11.07;;
52858;SDS011;38721;53.098;6.596;2023-05-10T02:22:57;13.68;;;11.00;;
52858;SDS011;38721;53.098;6.596;2023-05-10T02:25:24;16.48;;;11.48;;
52858;SDS011;38721;53.098;6.596;2023-05-10T02:27:51;15.85;;;10.95;;
52858;SDS011;38721;53.098;6.596;2023-05-10T02:30:19;13.55;;;10.90;;
52858;SDS011;38721;53.098;6.596;2023-05-10T02:32:46;13.63;;;11.02;;
52858;SDS011;38721;53.098;6.596;2023-05-10T02:35:13;17.63;;;11.55;;
52858;SDS011;38721;53.098;6.596;2023-05-10T02:37:41;13.57;;;10.93;;
52858;SDS011;38721;53.098;6.596;2023-05-10T02:40:07;14.02;;;10.98;;
52858;SDS011;38721;53.098;6.596;2023-05-10T02:42:36;15.43;;;11.63;;
52858;SDS011;38721;53.098;6.596;2023-05-10T02:45:05;14.02;;;11.30;;
52858;SDS011;38721;53.098;6.596;2023-05-10T02:47:35;15.52;;;11.70;;
52858;SDS011;38721;53.098;6.596;2023-05-10T02:50:04;16.98;;;12.25;;
52858;SDS011;38721;53.098;6.596;2023-05-10T02:52:36;16.85;;;12.43;;
52858;SDS011;38721;53.098;6.596;2023-05-10T02:55:12;17.05;;;12.73;;
52858;SDS011;38721;53.098;6.596;2023-05-10T02:57:42;18.33;;;13.05;;
52858;SDS011;38721;53.098;6.596;2023-05-10T03:00:13;18.15;;;12.88;;
52858;SDS011;38721;53.098;6.596;2023-05-10T03:02:39;19.23;;;13.13;;
52858;SDS011;38721;53.098;6.596;2023-05-10T03:05:05;20.30;;;13.63;;
52858;SDS011;38721;53.098;6.596;2023-05-10T03:07:32;20.95;;;14.15;;
52858;SDS011;38721;53.098;6.596;2023-05-10T03:09:58;20.90;;;13.70;;
52858;SDS011;38721;53.098;6.596;2023-05-10T03:18:21;23.95;;;14.40;;
52858;SDS011;38721;53.098;6.596;2023-05-10T03:20:52;24.27;;;14.98;;
52858;SDS011;38721;53.098;6.596;2023-05-10T03:23:34;22.48;;;14.63;;
52858;SDS011;38721;53.098;6.596;2023-05-10T03:26:08;26.60;;;15.30;;
52858;SDS011;38721;53.098;6.596;2023-05-10T03:28:34;24.17;;;15.10;;
52858;SDS011;38721;53.098;6.596;2023-05-10T03:31:02;24.98;;;15.30;;
52858;SDS011;38721;53.098;6.596;2023-05-10T03:33:29;25.27;;;15.10;;
52858;SDS011;38721;53.098;6.596;2023-05-10T03:35:54;24.77;;;15.80;;
52858;SDS011;38721;53.098;6.596;2023-05-10T03:38:20;25.63;;;15.60;;
52858;SDS011;38721;53.098;6.596;2023-05-10T03:40:46;27.42;;;15.80;;
52858;SDS011;38721;53.098;6.596;2023-05-10T03:43:11;29.15;;;16.25;;
52858;SDS011;38721;53.098;6.596;2023-05-10T03:45:37;26.27;;;15.63;;
52858;SDS011;38721;53.098;6.596;2023-05-10T03:48:02;24.55;;;15.35;;
52858;SDS011;38721;53.098;6.596;2023-05-10T03:50:28;26.60;;;15.43;;
52858;SDS011;38721;53.098;6.596;2023-05-10T03:52:54;26.35;;;15.48;;
52858;SDS011;38721;53.098;6.596;2023-05-10T03:55:20;27.33;;;15.80;;
52858;SDS011;38721;53.098;6.596;2023-05-10T03:57:48;26.02;;;15.65;;
52858;SDS011;38721;53.098;6.596;2023-05-10T04:00:18;28.88;;;16.10;;
52858;SDS011;38721;53.098;6.596;2023-05-10T04:02:44;23.92;;;15.70;;
52858;SDS011;38721;53.098;6.596;2023-05-10T04:05:10;22.40;;;14.60;;
52858;SDS011;38721;53.098;6.596;2023-05-10T04:07:35;23.08;;;14.85;;
52858;SDS011;38721;53.098;6.596;2023-05-10T04:10:01;21.90;;;15.52;;
52858;SDS011;38721;53.098;6.596;2023-05-10T04:12:27;23.70;;;14.25;;
52858;SDS011;38721;53.098;6.596;2023-05-10T04:14:53;21.40;;;13.85;;
52858;SDS011;38721;53.098;6.596;2023-05-10T04:17:18;21.55;;;13.10;;
52858;SDS011;38721;53.098;6.596;2023-05-10T04:19:44;19.35;;;13.10;;
52858;SDS011;38721;53.098;6.596;2023-05-10T04:22:09;19.30;;;12.52;;
52858;SDS011;38721;53.098;6.596;2023-05-10T04:24:35;16.17;;;12.35;;
52858;SDS011;38721;53.098;6.596;2023-05-10T04:27:01;19.98;;;11.98;;
52858;SDS011;38721;53.098;6.596;2023-05-10T04:29:27;15.60;;;11.40;;
52858;SDS011;38721;53.098;6.596;2023-05-10T04:31:55;18.30;;;12.10;;
52858;SDS011;38721;53.098;6.596;2023-05-10T04:34:21;16.83;;;11.10;;
52858;SDS011;38721;53.098;6.596;2023-05-10T04:36:47;18.92;;;11.20;;
52858;SDS011;38721;53.098;6.596;2023-05-10T04:39:12;17.45;;;11.25;;
52858;SDS011;38721;53.098;6.596;2023-05-10T04:41:38;16.08;;;11.27;;
52858;SDS011;38721;53.098;6.596;2023-05-10T04:44:04;15.77;;;10.50;;
52858;SDS011;38721;53.098;6.596;2023-05-10T04:46:30;16.20;;;10.75;;
52858;SDS011;38721;53.098;6.596;2023-05-10T04:48:56;16.40;;;11.23;;
52858;SDS011;38721;53.098;6.596;2023-05-10T04:51:25;17.73;;;12.13;;
52858;SDS011;38721;53.098;6.596;2023-05-10T04:53:50;15.02;;;11.10;;
52858;SDS011;38721;53.098;6.596;2023-05-10T04:56:16;15.27;;;11.13;;
52858;SDS011;38721;53.098;6.596;2023-05-10T04:58:41;17.67;;;11.00;;
52858;SDS011;38721;53.098;6.596;2023-05-10T05:01:07;15.73;;;11.23;;
52858;SDS011;38721;53.098;6.596;2023-05-10T05:03:34;13.43;;;10.70;;
52858;SDS011;38721;53.098;6.596;2023-05-10T05:06:00;12.10;;;10.48;;
52858;SDS011;38721;53.098;6.596;2023-05-10T05:08:26;13.25;;;10.88;;
52858;SDS011;38721;53.098;6.596;2023-05-10T05:10:52;13.13;;;10.32;;
52858;SDS011;38721;53.098;6.596;2023-05-10T05:13:17;11.80;;;9.50;;
52858;SDS011;38721;53.098;6.596;2023-05-10T05:15:43;13.25;;;9.68;;
52858;SDS011;38721;53.098;6.596;2023-05-10T05:18:09;10.82;;;8.98;;
52858;SDS011;38721;53.098;6.596;2023-05-10T05:20:35;10.00;;;8.18;;
52858;SDS011;38721;53.098;6.596;2023-05-10T05:23:02;9.27;;;8.10;;
52858;SDS011;38721;53.098;6.596;2023-05-10T05:25:28;9.98;;;7.47;;
52858;SDS011;38721;53.098;6.596;2023-05-10T05:27:54;10.07;;;7.90;;
52858;SDS011;38721;53.098;6.596;2023-05-10T05:30:19;9.88;;;7.70;;
52858;SDS011;38721;53.098;6.596;2023-05-10T05:32:45;10.98;;;8.02;;
52858;SDS011;38721;53.098;6.596;2023-05-10T05:35:12;9.65;;;7.72;;
52858;SDS011;38721;53.098;6.596;2023-05-10T05:37:38;8.27;;;7.13;;
52858;SDS011;38721;53.098;6.596;2023-05-10T05:40:04;9.75;;;6.40;;
52858;SDS011;38721;53.098;6.596;2023-05-10T05:42:30;6.40;;;5.38;;
52858;SDS011;38721;53.098;6.596;2023-05-10T05:44:59;5.70;;;4.80;;
52858;SDS011;38721;53.098;6.596;2023-05-10T05:47:25;6.43;;;5.20;;
52858;SDS011;38721;53.098;6.596;2023-05-10T05:49:50;6.18;;;4.60;;
52858;SDS011;38721;53.098;6.596;2023-05-10T05:52:16;4.97;;;4.47;;
52858;SDS011;38721;53.098;6.596;2023-05-10T05:54:42;4.88;;;4.38;;
52858;SDS011;38721;53.098;6.596;2023-05-10T05:57:08;3.78;;;3.35;;
52858;SDS011;38721;53.098;6.596;2023-05-10T05:59:34;3.95;;;3.17;;
52858;SDS011;38721;53.098;6.596;2023-05-10T06:01:59;3.75;;;3.13;;
52858;SDS011;38721;53.098;6.596;2023-05-10T06:04:26;4.20;;;2.63;;
52858;SDS011;38721;53.098;6.596;2023-05-10T06:06:51;3.22;;;2.55;;
52858;SDS011;38721;53.098;6.596;2023-05-10T06:09:17;2.97;;;2.47;;
52858;SDS011;38721;53.098;6.596;2023-05-10T06:11:42;3.05;;;2.70;;
52858;SDS011;38721;53.098;6.596;2023-05-10T06:14:08;3.38;;;2.50;;
52858;SDS011;38721;53.098;6.596;2023-05-10T06:16:34;4.22;;;2.70;;
52858;SDS011;38721;53.098;6.596;2023-05-10T06:19:00;3.42;;;2.85;;
52858;SDS011;38721;53.098;6.596;2023-05-10T06:21:25;3.13;;;2.50;;
52858;SDS011;38721;53.098;6.596;2023-05-10T06:23:51;3.20;;;2.25;;
52858;SDS011;38721;53.098;6.596;2023-05-10T06:26:17;3.35;;;2.58;;
52858;SDS011;38721;53.098;6.596;2023-05-10T06:28:42;2.30;;;2.00;;
52858;SDS011;38721;53.098;6.596;2023-05-10T06:31:08;2.00;;;1.80;;
52858;SDS011;38721;53.098;6.596;2023-05-10T06:33:34;1.95;;;1.60;;
52858;SDS011;38721;53.098;6.596;2023-05-10T06:36:00;1.70;;;1.60;;
52858;SDS011;38721;53.098;6.596;2023-05-10T06:38:26;2.38;;;1.90;;
52858;SDS011;38721;53.098;6.596;2023-05-10T06:40:52;2.90;;;2.00;;
52858;SDS011;38721;53.098;6.596;2023-05-10T06:43:18;4.57;;;2.53;;
52858;SDS011;38721;53.098;6.596;2023-05-10T06:45:43;2.85;;;2.53;;
52858;SDS011;38721;53.098;6.596;2023-05-10T06:48:09;3.22;;;2.80;;
52858;SDS011;38721;53.098;6.596;2023-05-10T06:50:35;3.58;;;2.72;;
52858;SDS011;38721;53.098;6.596;2023-05-10T06:53:01;3.35;;;2.42;;
52858;SDS011;38721;53.098;6.596;2023-05-10T06:55:29;2.38;;;1.90;;
52858;SDS011;38721;53.098;6.596;2023-05-10T06:57:55;3.03;;;1.90;;
52858;SDS011;38721;53.098;6.596;2023-05-10T07:00:20;2.30;;;1.80;;
52858;SDS011;38721;53.098;6.596;2023-05-10T07:02:46;3.67;;;1.85;;
52858;SDS011;38721;53.098;6.596;2023-05-10T07:05:12;1.90;;;1.73;;
52858;SDS011;38721;53.098;6.596;2023-05-10T07:07:39;1.60;;;1.50;;
52858;SDS011;38721;53.098;6.596;2023-05-10T07:10:05;2.00;;;1.80;;
52858;SDS011;38721;53.098;6.596;2023-05-10T07:12:31;1.45;;;1.35;;
52858;SDS011;38721;53.098;6.596;2023-05-10T07:14:56;1.83;;;1.60;;
52858;SDS011;38721;53.098;6.596;2023-05-10T07:17:22;1.40;;;1.30;;
52858;SDS011;38721;53.098;6.596;2023-05-10T07:19:47;2.13;;;1.10;;
52858;SDS011;38721;53.098;6.596;2023-05-10T07:22:14;1.30;;;1.20;;
52858;SDS011;38721;53.098;6.596;2023-05-10T07:24:40;1.20;;;1.10;;
52858;SDS011;38721;53.098;6.596;2023-05-10T07:27:06;1.20;;;1.10;;
52858;SDS011;38721;53.098;6.596;2023-05-10T07:29:32;1.33;;;1.20;;
52858;SDS011;38721;53.098;6.596;2023-05-10T07:31:58;1.25;;;1.15;;
52858;SDS011;38721;53.098;6.596;2023-05-10T07:34:23;1.20;;;1.10;;
52858;SDS011;38721;53.098;6.596;2023-05-10T07:36:49;2.78;;;1.20;;
52858;SDS011;38721;53.098;6.596;2023-05-10T07:39:15;1.33;;;1.20;;
52858;SDS011;38721;53.098;6.596;2023-05-10T07:41:41;1.38;;;1.27;;
52858;SDS011;38721;53.098;6.596;2023-05-10T07:44:07;1.52;;;1.42;;
52858;SDS011;38721;53.098;6.596;2023-05-10T07:46:33;2.00;;;1.80;;
52858;SDS011;38721;53.098;6.596;2023-05-10T07:48:59;2.17;;;1.98;;
52858;SDS011;38721;53.098;6.596;2023-05-10T07:51:24;2.65;;;2.20;;
52858;SDS011;38721;53.098;6.596;2023-05-10T07:53:50;3.42;;;2.83;;
52858;SDS011;38721;53.098;6.596;2023-05-10T07:56:26;3.22;;;2.92;;
52858;SDS011;38721;53.098;6.596;2023-05-10T07:58:55;3.85;;;3.25;;
52858;SDS011;38721;53.098;6.596;2023-05-10T08:01:21;3.75;;;3.42;;
52858;SDS011;38721;53.098;6.596;2023-05-10T08:03:48;3.78;;;3.47;;
52858;SDS011;38721;53.098;6.596;2023-05-10T08:06:17;3.75;;;3.38;;
52858;SDS011;38721;53.098;6.596;2023-05-10T08:08:43;3.75;;;3.45;;
52858;SDS011;38721;53.098;6.596;2023-05-10T08:11:14;3.92;;;3.53;;
52858;SDS011;38721;53.098;6.596;2023-05-10T08:13:41;4.75;;;4.22;;
52858;SDS011;38721;53.098;6.596;2023-05-10T08:16:06;4.05;;;3.65;;
52858;SDS011;38721;53.098;6.596;2023-05-10T08:18:35;4.53;;;4.13;;
52858;SDS011;38721;53.098;6.596;2023-05-10T08:21:00;4.78;;;4.38;;
52858;SDS011;38721;53.098;6.596;2023-05-10T08:23:26;5.57;;;5.07;;
52858;SDS011;38721;53.098;6.596;2023-05-10T08:25:52;5.93;;;5.15;;
52858;SDS011;38721;53.098;6.596;2023-05-10T08:28:17;6.88;;;4.93;;
52858;SDS011;38721;53.098;6.596;2023-05-10T08:30:43;6.35;;;5.57;;
52858;SDS011;38721;53.098;6.596;2023-05-10T08:33:09;5.93;;;5.10;;
52858;SDS011;38721;53.098;6.596;2023-05-10T08:35:34;5.65;;;4.78;;
52858;SDS011;38721;53.098;6.596;2023-05-10T08:38:00;5.60;;;5.00;;
52858;SDS011;38721;53.098;6.596;2023-05-10T08:40:29;5.70;;;4.60;;
52858;SDS011;38721;53.098;6.596;2023-05-10T08:43:28;6.75;;;5.25;;
52858;SDS011;38721;53.098;6.596;2023-05-10T08:45:48;5.75;;;4.80;;
52858;SDS011;38721;53.098;6.596;2023-05-10T08:48:14;7.60;;;4.82;;
52858;SDS011;38721;53.098;6.596;2023-05-10T08:50:41;5.25;;;4.75;;
52858;SDS011;38721;53.098;6.596;2023-05-10T08:53:11;6.15;;;4.57;;
52858;SDS011;38721;53.098;6.596;2023-05-10T08:55:38;7.13;;;5.13;;
52858;SDS011;38721;53.098;6.596;2023-05-10T08:58:05;6.88;;;5.60;;
52858;SDS011;38721;53.098;6.596;2023-05-10T09:00:31;6.75;;;5.97;;
52858;SDS011;38721;53.098;6.596;2023-05-10T09:02:57;8.98;;;6.10;;
52858;SDS011;38721;53.098;6.596;2023-05-10T09:05:24;7.03;;;5.68;;
52858;SDS011;38721;53.098;6.596;2023-05-10T09:07:50;7.22;;;5.40;;
52858;SDS011;38721;53.098;6.596;2023-05-10T09:10:15;7.13;;;5.60;;
52858;SDS011;38721;53.098;6.596;2023-05-10T09:12:41;8.13;;;6.43;;
52858;SDS011;38721;53.098;6.596;2023-05-10T09:15:10;6.90;;;5.55;;
52858;SDS011;38721;53.098;6.596;2023-05-10T09:17:36;6.72;;;5.93;;
52858;SDS011;38721;53.098;6.596;2023-05-10T09:20:05;6.35;;;5.40;;
52858;SDS011;38721;53.098;6.596;2023-05-10T09:22:31;5.65;;;4.93;;
52858;SDS011;38721;53.098;6.596;2023-05-10T09:25:04;5.15;;;4.65;;
52858;SDS011;38721;53.098;6.596;2023-05-10T09:27:30;6.80;;;5.28;;
52858;SDS011;38721;53.098;6.596;2023-05-10T09:29:55;7.65;;;5.22;;
52858;SDS011;38721;53.098;6.596;2023-05-10T09:32:21;6.50;;;5.32;;
52858;SDS011;38721;53.098;6.596;2023-05-10T09:34:47;7.18;;;6.10;;
52858;SDS011;38721;53.098;6.596;2023-05-10T09:37:15;7.90;;;5.55;;
52858;SDS011;38721;53.098;6.596;2023-05-10T09:39:40;8.30;;;5.10;;
52858;SDS011;38721;53.098;6.596;2023-05-10T09:42:07;5.85;;;4.93;;
52858;SDS011;38721;53.098;6.596;2023-05-10T09:44:34;5.85;;;4.93;;
52858;SDS011;38721;53.098;6.596;2023-05-10T09:47:01;6.55;;;5.72;;
52858;SDS011;38721;53.098;6.596;2023-05-10T09:49:27;9.43;;;6.30;;
52858;SDS011;38721;53.098;6.596;2023-05-10T09:52:00;10.88;;;6.25;;
52858;SDS011;38721;53.098;6.596;2023-05-10T09:54:26;7.90;;;6.00;;
52858;SDS011;38721;53.098;6.596;2023-05-10T09:56:52;6.47;;;5.68;;
52858;SDS011;38721;53.098;6.596;2023-05-10T09:59:17;8.88;;;5.93;;
52858;SDS011;38721;53.098;6.596;2023-05-10T10:01:48;7.25;;;5.60;;
52858;SDS011;38721;53.098;6.596;2023-05-10T10:04:21;9.25;;;5.60;;
52858;SDS011;38721;53.098;6.596;2023-05-10T10:06:47;7.43;;;5.63;;
52858;SDS011;38721;53.098;6.596;2023-05-10T10:09:32;7.60;;;5.80;;
52858;SDS011;38721;53.098;6.596;2023-05-10T10:12:02;6.43;;;5.25;;
52858;SDS011;38721;53.098;6.596;2023-05-10T10:14:29;7.72;;;5.20;;
52858;SDS011;38721;53.098;6.596;2023-05-10T10:16:55;6.28;;;5.07;;
52858;SDS011;38721;53.098;6.596;2023-05-10T10:19:21;7.30;;;5.72;;
52858;SDS011;38721;53.098;6.596;2023-05-10T10:21:50;8.20;;;5.60;;
52858;SDS011;38721;53.098;6.596;2023-05-10T10:24:16;7.40;;;5.38;;
52858;SDS011;38721;53.098;6.596;2023-05-10T10:26:42;7.55;;;5.97;;
52858;SDS011;38721;53.098;6.596;2023-05-10T10:32:11;7.78;;;5.82;;
52858;SDS011;38721;53.098;6.596;2023-05-10T10:34:45;8.98;;;6.60;;
52858;SDS011;38721;53.098;6.596;2023-05-10T10:37:12;8.65;;;6.57;;
52858;SDS011;38721;53.098;6.596;2023-05-10T10:39:37;7.60;;;4.97;;
52858;SDS011;38721;53.098;6.596;2023-05-10T10:42:03;7.97;;;5.75;;
52858;SDS011;38721;53.098;6.596;2023-05-10T10:47:03;7.45;;;5.57;;
52858;SDS011;38721;53.098;6.596;2023-05-10T10:50:02;6.90;;;5.40;;
52858;SDS011;38721;53.098;6.596;2023-05-10T10:52:37;5.85;;;4.97;;
52858;SDS011;38721;53.098;6.596;2023-05-10T10:55:12;6.55;;;4.57;;
52858;SDS011;38721;53.098;6.596;2023-05-10T11:00:38;6.13;;;4.85;;
52858;SDS011;38721;53.098;6.596;2023-05-10T11:10:37;7.22;;;5.15;;
52858;SDS011;38721;53.098;6.596;2023-05-10T11:15:34;8.38;;;5.15;;
52858;SDS011;38721;53.098;6.596;2023-05-10T11:20:52;7.30;;;5.25;;
52858;SDS011;38721;53.098;6.596;2023-05-10T11:23:29;6.35;;;4.70;;
52858;SDS011;38721;53.098;6.596;2023-05-10T11:26:13;7.57;;;4.97;;
52858;SDS011;38721;53.098;6.596;2023-05-10T11:28:46;7.65;;;4.55;;
52858;SDS011;38721;53.098;6.596;2023-05-10T11:31:13;5.30;;;4.50;;
52858;SDS011;38721;53.098;6.596;2023-05-10T11:33:50;4.43;;;3.90;;
52858;SDS011;38721;53.098;6.596;2023-05-10T11:36:18;4.60;;;4.07;;
52858;SDS011;38721;53.098;6.596;2023-05-10T11:38:45;5.68;;;4.15;;
52858;SDS011;38721;53.098;6.596;2023-05-10T11:41:12;6.05;;;4.50;;
52858;SDS011;38721;53.098;6.596;2023-05-10T11:43:38;5.13;;;4.30;;
52858;SDS011;38721;53.098;6.596;2023-05-10T11:46:05;6.75;;;4.70;;
52858;SDS011;38721;53.098;6.596;2023-05-10T11:48:31;7.72;;;4.65;;
52858;SDS011;38721;53.098;6.596;2023-05-10T11:50:57;6.82;;;5.10;;
52858;SDS011;38721;53.098;6.596;2023-05-10T11:53:25;6.57;;;5.38;;
52858;SDS011;38721;53.098;6.596;2023-05-10T11:55:52;6.47;;;4.95;;
52858;SDS011;38721;53.098;6.596;2023-05-10T11:58:20;5.65;;;4.57;;
52858;SDS011;38721;53.098;6.596;2023-05-10T12:00:47;7.18;;;5.20;;
52858;SDS011;38721;53.098;6.596;2023-05-10T12:03:13;7.68;;;5.05;;
52858;SDS011;38721;53.098;6.596;2023-05-10T12:05:39;6.65;;;4.90;;
52858;SDS011;38721;53.098;6.596;2023-05-10T12:08:13;6.90;;;4.93;;
52858;SDS011;38721;53.098;6.596;2023-05-10T12:10:40;6.28;;;5.45;;
52858;SDS011;38721;53.098;6.596;2023-05-10T12:13:10;7.78;;;5.53;;
52858;SDS011;38721;53.098;6.596;2023-05-10T12:18:08;7.50;;;5.63;;
52858;SDS011;38721;53.098;6.596;2023-05-10T12:20:35;7.65;;;6.15;;
52858;SDS011;38721;53.098;6.596;2023-05-10T12:23:01;8.05;;;5.93;;
52858;SDS011;38721;53.098;6.596;2023-05-10T12:25:32;7.85;;;6.20;;
52858;SDS011;38721;53.098;6.596;2023-05-10T12:27:59;12.02;;;6.55;;
52858;SDS011;38721;53.098;6.596;2023-05-10T12:30:29;7.78;;;6.30;;
52858;SDS011;38721;53.098;6.596;2023-05-10T12:33:00;11.07;;;7.03;;
52858;SDS011;38721;53.098;6.596;2023-05-10T12:35:31;9.88;;;6.80;;
52858;SDS011;38721;53.098;6.596;2023-05-10T12:37:57;9.27;;;6.43;;
52858;SDS011;38721;53.098;6.596;2023-05-10T12:40:23;8.73;;;6.32;;
52858;SDS011;38721;53.098;6.596;2023-05-10T12:42:48;9.30;;;6.55;;
52858;SDS011;38721;53.098;6.596;2023-05-10T12:45:18;9.98;;;6.05;;
52858;SDS011;38721;53.098;6.596;2023-05-10T12:47:44;11.65;;;6.32;;
52858;SDS011;38721;53.098;6.596;2023-05-10T12:50:09;13.45;;;6.65;;
52858;SDS011;38721;53.098;6.596;2023-05-10T12:52:36;10.18;;;6.35;;
52858;SDS011;38721;53.098;6.596;2023-05-10T12:55:02;8.40;;;5.78;;
52858;SDS011;38721;53.098;6.596;2023-05-10T12:57:28;9.65;;;5.90;;
52858;SDS011;38721;53.098;6.596;2023-05-10T12:59:57;9.65;;;5.70;;
52858;SDS011;38721;53.098;6.596;2023-05-10T13:02:22;7.38;;;5.93;;
52858;SDS011;38721;53.098;6.596;2023-05-10T13:04:48;9.43;;;6.57;;
52858;SDS011;38721;53.098;6.596;2023-05-10T13:07:14;8.35;;;6.13;;
52858;SDS011;38721;53.098;6.596;2023-05-10T13:09:40;7.30;;;5.68;;
52858;SDS011;38721;53.098;6.596;2023-05-10T13:12:05;8.35;;;5.50;;
52858;SDS011;38721;53.098;6.596;2023-05-10T13:14:31;9.13;;;6.18;;
52858;SDS011;38721;53.098;6.596;2023-05-10T13:16:57;8.60;;;6.40;;
52858;SDS011;38721;53.098;6.596;2023-05-10T13:19:22;9.05;;;6.53;;
52858;SDS011;38721;53.098;6.596;2023-05-10T13:21:48;7.97;;;6.15;;
52858;SDS011;38721;53.098;6.596;2023-05-10T13:24:14;8.50;;;6.00;;
52858;SDS011;38721;53.098;6.596;2023-05-10T13:26:40;7.80;;;5.30;;
52858;SDS011;38721;53.098;6.596;2023-05-10T13:29:05;9.70;;;6.40;;
52858;SDS011;38721;53.098;6.596;2023-05-10T13:31:32;7.72;;;5.93;;
52858;SDS011;38721;53.098;6.596;2023-05-10T13:33:58;7.60;;;5.40;;
52858;SDS011;38721;53.098;6.596;2023-05-10T13:36:24;7.95;;;5.20;;
52858;SDS011;38721;53.098;6.596;2023-05-10T13:38:53;9.05;;;5.85;;
52858;SDS011;38721;53.098;6.596;2023-05-10T13:41:18;7.25;;;5.50;;
52858;SDS011;38721;53.098;6.596;2023-05-10T13:43:44;7.30;;;5.38;;
52858;SDS011;38721;53.098;6.596;2023-05-10T13:46:09;6.60;;;5.10;;
52858;SDS011;38721;53.098;6.596;2023-05-10T13:48:35;8.10;;;4.90;;
52858;SDS011;38721;53.098;6.596;2023-05-10T13:51:02;6.15;;;4.45;;
52858;SDS011;38721;53.098;6.596;2023-05-10T13:53:28;5.88;;;4.63;;
52858;SDS011;38721;53.098;6.596;2023-05-10T13:55:53;8.07;;;5.03;;
52858;SDS011;38721;53.098;6.596;2023-05-10T13:58:19;7.78;;;5.50;;
52858;SDS011;38721;53.098;6.596;2023-05-10T14:00:45;8.25;;;5.60;;
52858;SDS011;38721;53.098;6.596;2023-05-10T14:03:10;8.23;;;5.80;;
52858;SDS011;38721;53.098;6.596;2023-05-10T14:05:36;8.57;;;6.20;;
52858;SDS011;38721;53.098;6.596;2023-05-10T14:08:02;8.52;;;6.10;;
52858;SDS011;38721;53.098;6.596;2023-05-10T14:10:28;9.60;;;6.32;;
52858;SDS011;38721;53.098;6.596;2023-05-10T14:12:53;10.38;;;6.25;;
52858;SDS011;38721;53.098;6.596;2023-05-10T14:15:19;7.55;;;6.00;;
52858;SDS011;38721;53.098;6.596;2023-05-10T14:17:45;10.10;;;6.57;;
52858;SDS011;38721;53.098;6.596;2023-05-10T14:20:10;9.77;;;6.35;;
52858;SDS011;38721;53.098;6.596;2023-05-10T14:22:36;10.05;;;6.68;;
52858;SDS011;38721;53.098;6.596;2023-05-10T14:25:02;8.13;;;5.97;;
52858;SDS011;38721;53.098;6.596;2023-05-10T14:27:28;10.15;;;6.32;;
52858;SDS011;38721;53.098;6.596;2023-05-10T14:29:53;8.82;;;6.18;;
52858;SDS011;38721;53.098;6.596;2023-05-10T14:32:19;8.77;;;6.20;;
52858;SDS011;38721;53.098;6.596;2023-05-10T14:34:45;8.15;;;6.03;;
52858;SDS011;38721;53.098;6.596;2023-05-10T14:37:11;10.00;;;6.55;;
52858;SDS011;38721;53.098;6.596;2023-05-10T14:39:38;10.30;;;6.25;;
52858;SDS011;38721;53.098;6.596;2023-05-10T14:42:04;10.45;;;6.10;;
52858;SDS011;38721;53.098;6.596;2023-05-10T14:44:30;10.20;;;6.03;;
52858;SDS011;38721;53.098;6.596;2023-05-10T14:46:56;8.82;;;5.95;;
52858;SDS011;38721;53.098;6.596;2023-05-10T14:49:22;9.20;;;6.40;;
52858;SDS011;38721;53.098;6.596;2023-05-10T14:51:50;7.13;;;5.60;;
52858;SDS011;38721;53.098;6.596;2023-05-10T14:54:16;8.80;;;6.57;;
52858;SDS011;38721;53.098;6.596;2023-05-10T14:56:42;9.13;;;6.18;;
52858;SDS011;38721;53.098;6.596;2023-05-10T14:59:07;7.82;;;6.05;;
52858;SDS011;38721;53.098;6.596;2023-05-10T15:01:33;7.00;;;6.20;;
52858;SDS011;38721;53.098;6.596;2023-05-10T15:04:02;9.02;;;6.43;;
52858;SDS011;38721;53.098;6.596;2023-05-10T15:06:32;9.73;;;7.45;;
52858;SDS011;38721;53.098;6.596;2023-05-10T15:09:02;11.52;;;7.78;;
52858;SDS011;38721;53.098;6.596;2023-05-10T15:11:31;10.02;;;7.50;;
52858;SDS011;38721;53.098;6.596;2023-05-10T15:13:57;8.40;;;6.65;;
52858;SDS011;38721;53.098;6.596;2023-05-10T15:16:22;7.32;;;6.35;;
52858;SDS011;38721;53.098;6.596;2023-05-10T15:18:48;8.30;;;6.20;;
52858;SDS011;38721;53.098;6.596;2023-05-10T15:21:16;8.40;;;6.35;;